Time;durP1;ratioP1;P1;durP2;ratioP2;P2;SDS_P1;SDS_P2;PMS_P1;PMS_P2;Temp;Humidity;BMP_temperature;BMP_pressure;BME280_temperature;BME280_humidity;BME280_pressure;Samples;Min_cycle;Max_cycle;Signal;HPM_P1;HPM_P2
2022/04/28 00:00:28;;;;;;;20.27;12.05;;;;;;;15.63;32.73;101998.34;5035972;28;20128;-70
2022/04/28 00:02:55;;;;;;;17.38;11.32;;;;;;;15.50;32.98;102000.66;5036149;28;20051;-71
2022/04/28 00:05:22;;;;;;;21.58;12.57;;;;;;;15.56;32.90;101999.97;5036349;28;20482;-71
2022/04/28 00:07:48;;;;;;;19.58;11.50;;;;;;;15.44;32.97;102004.00;5035664;28;20052;-71
2022/04/28 00:10:17;;;;;;;22.13;11.60;;;;;;;15.51;32.86;102002.34;5035266;28;20050;-70
2022/04/28 00:12:44;;;;;;;25.42;13.55;;;;;;;15.66;32.40;102003.44;5034899;28;20119;-70
2022/04/28 00:15:10;;;;;;;24.58;13.48;;;;;;;15.70;32.71;102009.38;5036670;28;20136;-70
2022/04/28 00:17:37;;;;;;;16.25;10.90;;;;;;;15.74;32.60;102007.19;5032938;28;20071;-70
2022/04/28 00:20:05;;;;;;;24.27;12.93;;;;;;;15.78;32.54;102004.00;5045657;28;20046;-70
2022/04/28 00:22:32;;;;;;;18.13;11.27;;;;;;;15.73;32.84;102009.06;5036266;28;20049;-70
2022/04/28 00:24:58;;;;;;;19.02;11.38;;;;;;;15.72;32.82;102004.66;5036080;28;20075;-70
2022/04/28 00:27:25;;;;;;;22.27;12.13;;;;;;;15.78;32.82;102003.13;5036044;28;20046;-70
2022/04/28 00:29:51;;;;;;;22.67;11.35;;;;;;;15.66;32.84;102008.84;5035612;28;20049;-70
2022/04/28 00:32:18;;;;;;;18.50;11.18;;;;;;;15.71;32.42;102011.09;5036679;28;20462;-70
2022/04/28 00:34:46;;;;;;;16.08;10.43;;;;;;;15.69;32.40;102013.94;5034944;28;20120;-70
2022/04/28 00:37:14;;;;;;;19.63;10.45;;;;;;;15.61;32.71;102013.88;5035502;28;20045;-70
2022/04/28 00:39:40;;;;;;;18.50;10.65;;;;;;;15.86;32.39;102000.47;5035848;28;20084;-70
2022/04/28 00:42:11;;;;;;;16.75;10.98;;;;;;;15.80;32.53;102007.38;5035270;28;20053;-70
2022/04/28 00:44:39;;;;;;;19.73;11.27;;;;;;;15.76;32.38;102008.72;5035576;28;20124;-70
2022/04/28 00:47:07;;;;;;;18.92;10.30;;;;;;;15.69;32.43;102013.94;5035064;28;20045;-70
2022/04/28 00:52:19;;;;;;;16.35;10.27;;;;;;;15.78;32.50;102022.09;5035377;28;20128;-70
2022/04/28 00:54:47;;;;;;;18.02;11.10;;;;;;;15.83;32.30;102019.75;5034735;28;20088;-70
2022/04/28 00:57:14;;;;;;;17.85;10.93;;;;;;;15.76;32.30;102013.31;5035125;28;20049;-70
2022/04/28 00:59:41;;;;;;;18.98;10.40;;;;;;;15.84;32.20;102010.63;5035231;28;20151;-71
2022/04/28 01:02:11;;;;;;;17.98;9.52;;;;;;;15.84;32.40;102010.63;5036079;28;20084;-70
2022/04/28 01:04:38;;;;;;;16.50;10.57;;;;;;;15.86;32.19;102003.19;5034550;28;20049;-71
2022/04/28 01:07:33;;;;;;;18.35;10.23;;;;;;;15.77;32.72;102010.41;5038592;28;20490;-71
2022/04/28 01:10:00;;;;;;;15.02;9.40;;;;;;;15.76;32.89;102016.84;5035371;28;20129;-70
2022/04/28 01:12:26;;;;;;;19.83;10.57;;;;;;;15.65;33.13;102015.28;5036669;28;20133;-69
2022/04/28 01:14:53;;;;;;;17.88;9.93;;;;;;;15.53;33.43;102013.81;5031299;28;20132;-71
2022/04/28 01:17:20;;;;;;;18.02;9.50;;;;;;;15.55;33.43;102019.09;5034368;28;20083;-70
2022/04/28 01:19:47;;;;;;;13.77;9.65;;;;;;;15.54;33.26;102020.94;5034499;28;20056;-70
2022/04/28 01:22:14;;;;;;;16.27;9.90;;;;;;;15.55;33.36;102029.91;5026123;28;20045;-70
2022/04/28 01:24:40;;;;;;;18.38;10.20;;;;;;;15.54;33.42;102029.06;5035175;28;20065;-70
2022/04/28 01:27:08;;;;;;;17.83;10.10;;;;;;;15.57;33.31;102028.75;5035012;28;20053;-70
2022/04/28 01:29:34;;;;;;;22.38;11.15;;;;;;;15.58;33.27;102033.13;5034185;28;20533;-71
2022/04/28 01:32:02;;;;;;;19.08;10.40;;;;;;;15.49;33.43;102024.13;5035854;28;20065;-71
2022/04/28 01:34:28;;;;;;;19.02;10.68;;;;;;;15.53;33.62;102031.91;5034029;28;20041;-70
2022/04/28 01:36:55;;;;;;;20.13;12.25;;;;;;;15.47;33.68;102023.44;5034115;28;20124;-70
2022/04/28 01:39:21;;;;;;;27.63;15.35;;;;;;;15.37;33.71;102030.81;5033779;28;20140;-70
2022/04/28 01:41:49;;;;;;;21.20;12.57;;;;;;;15.35;33.61;102032.00;5034462;28;20497;-70
2022/04/28 01:44:16;;;;;;;21.77;11.18;;;;;;;15.24;33.95;102030.41;5033848;28;20068;-71
2022/04/28 01:46:43;;;;;;;16.33;10.55;;;;;;;15.40;33.40;102026.97;5033429;28;20069;-70
2022/04/28 01:49:09;;;;;;;25.05;10.80;;;;;;;15.45;33.44;102028.16;5033794;28;20045;-70
2022/04/28 01:57:06;;;;;;;17.33;10.93;;;;;;;15.51;33.27;102032.09;5024538;28;20045;-71
2022/04/28 01:59:32;;;;;;;19.48;10.65;;;;;;;15.41;33.90;102028.66;5048429;28;20128;-71
2022/04/28 02:01:59;;;;;;;19.30;10.70;;;;;;;15.49;33.38;102034.94;5034149;28;20049;-71
2022/04/28 02:04:25;;;;;;;20.42;11.27;;;;;;;15.34;33.47;102033.00;5036407;28;20045;-71
2022/04/28 02:06:52;;;;;;;17.00;10.43;;;;;;;15.46;33.30;102029.84;5035320;28;20076;-71
2022/04/28 02:09:18;;;;;;;18.73;10.68;;;;;;;15.30;33.80;102039.75;5033042;28;20109;-70
2022/04/28 02:11:45;;;;;;;18.38;11.60;;;;;;;15.46;33.55;102034.41;5032538;28;20045;-70
2022/04/28 02:14:11;;;;;;;26.85;11.68;;;;;;;15.49;33.39;102034.09;5031719;28;20129;-70
2022/04/28 02:16:38;;;;;;;19.40;10.82;;;;;;;15.43;33.52;102035.59;5028689;28;20080;-70
2022/04/28 02:19:04;;;;;;;17.58;11.32;;;;;;;15.21;33.57;102025.31;5031696;28;20053;-70
2022/04/28 02:21:31;;;;;;;16.67;10.25;;;;;;;15.34;33.54;102033.00;5031482;28;20128;-70
2022/04/28 02:23:57;;;;;;;19.27;10.65;;;;;;;15.44;33.53;102025.63;5031475;28;20041;-70
2022/04/28 02:26:24;;;;;;;22.23;11.48;;;;;;;15.42;33.51;102023.06;5032931;28;20072;-70
2022/04/28 02:28:50;;;;;;;19.73;11.45;;;;;;;15.25;33.72;102032.94;5033153;28;20095;-70
2022/04/28 02:31:17;;;;;;;17.67;11.38;;;;;;;15.03;34.11;102028.06;5032317;28;20428;-70
2022/04/28 02:33:44;;;;;;;24.52;11.25;;;;;;;15.23;33.66;102026.00;5032631;28;20095;-70
2022/04/28 02:36:12;;;;;;;19.42;12.32;;;;;;;15.23;33.69;102023.31;5033498;28;20574;-71
2022/04/28 02:38:38;;;;;;;17.88;11.70;;;;;;;15.11;33.75;102029.97;5032585;28;20144;-70
2022/04/28 02:41:05;;;;;;;20.40;11.57;;;;;;;14.97;34.07;102034.09;5027586;28;20073;-70
2022/04/28 02:43:32;;;;;;;22.70;11.25;;;;;;;15.03;33.68;102027.22;5043598;28;20059;-70
2022/04/28 02:45:58;;;;;;;17.95;10.50;;;;;;;15.01;33.60;102030.91;5045715;28;20140;-71
2022/04/28 02:48:25;;;;;;;16.42;10.75;;;;;;;14.95;33.69;102025.31;5032603;28;20069;-71
2022/04/28 02:50:52;;;;;;;17.02;10.73;;;;;;;15.01;33.96;102030.06;5032881;28;20485;-71
2022/04/28 02:53:19;;;;;;;19.63;10.40;;;;;;;15.03;33.67;102024.53;5032924;28;20103;-71
2022/04/28 02:55:45;;;;;;;17.63;10.65;;;;;;;14.89;33.82;102025.94;5032239;28;20484;-71
2022/04/28 02:58:11;;;;;;;18.17;10.68;;;;;;;14.70;34.11;102033.19;5032399;28;20082;-71
2022/04/28 03:00:38;;;;;;;17.45;9.95;;;;;;;14.70;33.89;102033.19;5032965;28;20049;-71
2022/04/28 03:03:05;;;;;;;19.95;11.00;;;;;;;14.68;33.67;102032.47;5032703;28;20152;-70
2022/04/28 03:10:46;;;;;;;17.58;10.02;;;;;;;14.56;33.87;102022.91;5032875;28;20049;-71
2022/04/28 03:11:03;;;;;;;17.88;10.05;;;;;;;14.51;33.82;102036.03;5036611;28;20043;-70
2022/04/28 03:13:31;;;;;;;19.13;10.40;;;;;;;14.46;33.91;102036.50;5037447;28;20108;-69
2022/04/28 03:15:59;;;;;;;18.40;10.52;;;;;;;14.53;33.96;102037.59;5054051;28;20073;-70
2022/04/28 03:18:27;;;;;;;17.83;9.95;;;;;;;14.26;34.38;102041.19;5053988;28;20045;-70
2022/04/28 03:20:54;;;;;;;18.15;10.23;;;;;;;14.48;33.95;102039.03;5052302;28;20053;-70
2022/04/28 03:23:22;;;;;;;14.93;9.55;;;;;;;14.46;33.73;102038.34;5054239;28;20079;-71
2022/04/28 03:25:51;;;;;;;15.88;9.77;;;;;;;14.36;33.78;102041.13;5052967;28;20472;-70
2022/04/28 03:28:19;;;;;;;16.13;9.43;;;;;;;14.16;33.89;102042.25;5053006;28;20102;-71
2022/04/28 03:30:46;;;;;;;18.65;10.20;;;;;;;14.25;33.69;102046.72;5052839;28;20076;-71
2022/04/28 03:33:13;;;;;;;17.45;9.73;;;;;;;14.24;33.70;102048.59;5052237;28;20056;-69
2022/04/28 03:35:40;;;;;;;16.17;9.57;;;;;;;14.15;33.66;102038.72;5053032;28;20055;-69
2022/04/28 03:38:11;;;;;;;16.17;9.52;;;;;;;14.21;33.64;102046.19;5052280;28;20095;-71
2022/04/28 03:40:42;;;;;;;13.90;8.82;;;;;;;14.07;33.75;102049.41;5051634;28;20037;-71
2022/04/28 03:43:09;;;;;;;16.67;10.07;;;;;;;14.05;33.64;102049.56;5052066;28;20084;-71
2022/04/28 03:45:37;;;;;;;16.02;10.13;;;;;;;14.15;33.77;102041.41;5052034;28;20131;-71
2022/04/28 03:48:04;;;;;;;15.55;9.95;;;;;;;14.15;33.96;102043.25;5052509;28;20041;-69
2022/04/28 03:50:31;;;;;;;15.77;9.98;;;;;;;14.15;34.49;102051.34;5054294;28;20065;-70
2022/04/28 03:52:58;;;;;;;19.63;10.23;;;;;;;14.26;34.57;102054.69;5046720;28;20186;-69
2022/04/28 03:55:25;;;;;;;19.92;10.75;;;;;;;14.25;34.42;102060.22;5053165;28;20068;-70
2022/04/28 03:57:52;;;;;;;21.90;10.77;;;;;;;14.30;34.63;102063.34;5052454;28;20140;-69
2022/04/28 04:00:19;;;;;;;17.63;9.60;;;;;;;14.30;34.51;102066.88;5051792;28;20077;-70
2022/04/28 04:02:46;;;;;;;19.23;10.05;;;;;;;14.21;34.37;102061.53;5052677;28;20132;-70
2022/04/28 04:05:13;;;;;;;17.55;9.65;;;;;;;13.96;35.00;102066.66;5052584;28;20451;-70
2022/04/28 04:07:42;;;;;;;18.10;10.18;;;;;;;13.92;35.04;102067.09;5053095;28;20135;-71
2022/04/28 04:10:11;;;;;;;14.40;9.23;;;;;;;14.14;34.66;102077.47;5052961;28;20049;-71
2022/04/28 04:12:38;;;;;;;15.63;8.90;;;;;;;14.14;34.86;102066.69;5052932;28;20041;-71
2022/04/28 04:15:06;;;;;;;17.65;9.13;;;;;;;14.34;34.39;102070.13;5046927;28;20545;-70
2022/04/28 04:17:40;;;;;;;17.63;9.30;;;;;;;14.29;34.22;102073.28;5051822;28;20045;-70
2022/04/28 04:20:07;;;;;;;15.05;9.77;;;;;;;14.23;33.95;102076.59;5051083;28;20078;-71
2022/04/28 04:22:33;;;;;;;22.35;9.10;;;;;;;14.14;33.80;102082.88;5051885;28;20049;-71
2022/04/28 04:25:01;;;;;;;18.02;9.18;;;;;;;14.16;33.92;102077.34;5051150;28;20131;-70
2022/04/28 04:27:27;;;;;;;21.17;8.95;;;;;;;14.07;33.79;102089.88;5047146;28;20080;-71
2022/04/28 04:29:54;;;;;;;16.58;9.10;;;;;;;13.99;33.93;102090.63;5050800;28;20041;-70
2022/04/28 04:32:25;;;;;;;22.48;10.13;;;;;;;13.95;34.17;102083.84;5051085;28;20084;-71
2022/04/28 04:34:54;;;;;;;16.75;9.05;;;;;;;14.19;33.79;102088.69;5050533;28;20401;-71
2022/04/28 04:37:21;;;;;;;15.40;9.00;;;;;;;14.13;33.97;102089.28;5050725;28;20053;-71
2022/04/28 04:39:48;;;;;;;25.38;11.57;;;;;;;14.20;34.12;102090.38;5052080;28;20510;-71
2022/04/28 04:42:15;;;;;;;15.52;10.07;;;;;;;14.20;34.16;102095.78;5050827;28;20465;-71
2022/04/28 04:44:42;;;;;;;23.50;9.75;;;;;;;14.34;33.84;102093.56;5054378;28;20040;-71
2022/04/28 04:47:08;;;;;;;17.13;8.65;;;;;;;14.32;33.42;102098.25;5047332;28;20112;-71
2022/04/28 04:49:35;;;;;;;14.02;9.13;;;;;;;14.38;33.22;102097.66;5055338;28;20475;-71
2022/04/28 04:52:02;;;;;;;18.30;8.98;;;;;;;14.27;33.32;102102.28;5054200;28;20140;-71
2022/04/28 04:54:28;;;;;;;14.93;9.38;;;;;;;14.67;32.87;102106.44;5054205;28;20535;-71
2022/04/28 04:56:54;;;;;;;16.90;9.57;;;;;;;14.71;32.80;102104.25;5053990;28;20053;-71
2022/04/28 04:59:21;;;;;;;16.48;9.82;;;;;;;14.74;32.33;102115.66;5053594;28;20063;-71
2022/04/28 05:01:47;;;;;;;15.20;8.13;;;;;;;14.69;32.14;102112.50;5052303;28;20041;-71
2022/04/28 05:04:14;;;;;;;17.60;9.15;;;;;;;14.75;31.97;102120.03;5053717;28;20136;-71
2022/04/28 05:06:40;;;;;;;12.95;8.70;;;;;;;14.90;31.88;102119.50;5054107;28;20128;-71
2022/04/28 05:09:07;;;;;;;19.67;9.32;;;;;;;14.99;31.37;102119.41;5052501;28;20419;-71
2022/04/28 05:11:34;;;;;;;19.98;9.35;;;;;;;14.98;31.34;102124.97;5052313;28;20071;-71
2022/04/28 05:14:00;;;;;;;21.02;9.20;;;;;;;15.01;31.42;102124.66;5053183;28;20083;-71
2022/04/28 05:16:26;;;;;;;17.55;8.63;;;;;;;14.93;31.96;102130.84;5053064;28;20069;-71
2022/04/28 05:18:53;;;;;;;19.73;9.27;;;;;;;15.18;31.01;102126.50;5053060;28;20045;-71
2022/04/28 05:21:19;;;;;;;34.45;13.73;;;;;;;15.27;31.01;102127.41;5052436;28;20149;-70
2022/04/28 05:23:46;;;;;;;20.95;11.02;;;;;;;15.36;30.49;102131.03;5048663;28;20453;-71
2022/04/28 05:26:12;;;;;;;17.30;9.18;;;;;;;15.32;30.88;102132.34;5052807;28;20041;-71
2022/04/28 05:28:39;;;;;;;16.30;8.48;;;;;;;15.37;30.66;102138.16;5052851;28;20131;-71
2022/04/28 05:31:05;;;;;;;22.95;9.65;;;;;;;15.30;30.73;102137.09;5054019;28;20135;-70
2022/04/28 05:33:32;;;;;;;18.83;8.10;;;;;;;15.23;30.91;102143.09;5056756;28;20140;-71
2022/04/28 05:35:59;;;;;;;19.77;8.98;;;;;;;15.55;30.17;102136.25;5053452;28;20485;-71
2022/04/28 05:38:25;;;;;;;17.17;7.97;;;;;;;15.45;30.42;102144.44;5053050;28;20064;-71
2022/04/28 05:40:52;;;;;;;22.83;9.32;;;;;;;15.49;30.11;102143.13;5053794;28;20103;-71
2022/04/28 05:46:03;;;;;;;26.02;9.25;;;;;;;15.52;30.10;102136.56;5053706;28;20075;-71
2022/04/28 05:48:32;;;;;;;21.42;8.43;;;;;;;15.69;29.95;102137.56;5052792;28;20047;-71
2022/04/28 05:50:59;;;;;;;18.40;9.68;;;;;;;15.84;29.64;102140.50;5045370;28;20135;-71
2022/04/28 05:53:25;;;;;;;15.60;8.68;;;;;;;16.03;29.61;102142.16;5054388;28;20128;-70
2022/04/28 05:55:52;;;;;;;17.05;9.05;;;;;;;16.02;29.38;102148.53;5051642;28;20051;-70
2022/04/28 05:58:18;;;;;;;17.75;8.05;;;;;;;16.06;29.30;102139.97;5052689;28;20053;-71
2022/04/28 06:00:44;;;;;;;17.17;8.43;;;;;;;15.82;29.32;102147.94;5051603;28;20099;-71
2022/04/28 06:03:11;;;;;;;22.40;7.55;;;;;;;15.87;29.08;102151.00;5053147;28;20053;-71
2022/04/28 06:05:38;;;;;;;18.35;8.15;;;;;;;15.83;29.12;102155.06;5045574;28;20128;-71
2022/04/28 06:08:04;;;;;;;18.20;8.75;;;;;;;15.48;29.71;102154.13;5052791;28;20468;-71
2022/04/28 06:10:31;;;;;;;18.02;8.80;;;;;;;15.74;29.45;102156.84;5053010;28;20119;-71
2022/04/28 06:12:57;;;;;;;24.42;8.45;;;;;;;15.68;29.49;102165.63;5051692;28;20132;-71
2022/04/28 06:15:24;;;;;;;19.92;8.73;;;;;;;15.58;29.49;102165.69;5052344;28;20101;-71
2022/04/28 06:17:56;;;;;;;18.58;7.75;;;;;;;15.82;29.19;102173.16;5052440;28;20048;-71
2022/04/28 06:20:23;;;;;;;19.00;8.18;;;;;;;16.02;29.75;102173.78;5052492;28;20072;-71
2022/04/28 06:22:49;;;;;;;20.60;9.32;;;;;;;16.26;29.37;102170.31;5050665;28;20048;-71
2022/04/28 06:25:16;;;;;;;16.88;8.75;;;;;;;16.25;29.39;102173.19;5051645;28;20048;-71
2022/04/28 06:27:42;;;;;;;18.27;9.43;;;;;;;16.18;29.71;102175.72;5053008;28;20463;-71
2022/04/28 06:30:09;;;;;;;18.55;9.18;;;;;;;16.33;29.52;102171.41;5051785;28;20068;-70
2022/04/28 06:32:36;;;;;;;24.98;10.82;;;;;;;16.21;30.09;102163.72;5053175;28;20068;-71
2022/04/28 06:35:03;;;;;;;16.33;9.80;;;;;;;16.33;30.07;102173.22;5051762;28;20123;-71
2022/04/28 06:37:30;;;;;;;23.30;11.57;;;;;;;16.60;29.59;102180.31;5051453;28;20128;-70
2022/04/28 06:39:56;;;;;;;36.05;18.08;;;;;;;16.62;30.03;102175.59;5051445;28;20136;-69
2022/04/28 06:42:23;;;;;;;34.28;19.88;;;;;;;16.66;29.91;102180.50;5052384;28;20132;-70
2022/04/28 06:44:49;;;;;;;25.65;11.88;;;;;;;16.33;30.42;102178.66;5051318;28;20075;-70
2022/04/28 06:47:16;;;;;;;27.45;11.90;;;;;;;16.64;30.07;102184.38;5051754;28;20044;-71
2022/04/28 06:49:42;;;;;;;23.33;10.30;;;;;;;16.28;30.78;102181.84;5051273;28;20065;-71
2022/04/28 06:52:09;;;;;;;19.98;9.73;;;;;;;16.49;30.36;102184.13;5051005;28;20400;-71
2022/04/28 06:54:35;;;;;;;19.95;9.82;;;;;;;16.58;30.54;102176.94;5052477;28;20132;-71
2022/04/28 06:57:03;;;;;;;24.52;10.85;;;;;;;16.75;30.48;102180.50;5051042;28;20048;-71
2022/04/28 06:59:29;;;;;;;17.75;10.23;;;;;;;16.15;31.62;102187.69;5049196;28;20045;-71
2022/04/28 07:01:56;;;;;;;22.88;11.02;;;;;;;16.43;31.15;102182.06;5049926;28;20037;-69
2022/04/28 07:04:23;;;;;;;18.50;10.38;;;;;;;17.03;29.98;102183.81;5051242;28;20048;-71
2022/04/28 07:06:49;;;;;;;26.25;10.88;;;;;;;16.61;30.88;102188.28;5057604;28;20049;-71
2022/04/28 07:09:18;;;;;;;23.42;10.13;;;;;;;17.16;29.79;102180.56;5051868;28;20460;-70
2022/04/28 07:11:45;;;;;;;19.00;10.32;;;;;;;17.11;29.70;102191.94;5052349;28;20053;-70
2022/04/28 07:14:13;;;;;;;18.55;10.15;;;;;;;17.35;29.58;102188.44;5053138;28;20401;-69
2022/04/28 07:16:39;;;;;;;30.17;9.98;;;;;;;17.42;29.33;102194.03;5048011;28;20037;-69
2022/04/28 07:19:06;;;;;;;23.88;10.20;;;;;;;17.63;29.17;102188.91;5050993;28;20041;-70
2022/04/28 07:21:33;;;;;;;24.90;11.18;;;;;;;17.96;28.82;102189.72;5051438;28;20440;-69
2022/04/28 07:24:00;;;;;;;31.15;10.52;;;;;;;17.89;28.41;102188.72;5052171;28;20056;-70
2022/04/28 07:26:28;;;;;;;18.15;9.23;;;;;;;18.42;27.91;102184.50;5052595;28;20453;-70
2022/04/28 07:28:54;;;;;;;20.38;9.38;;;;;;;18.45;27.61;102192.28;5049882;28;20101;-70
2022/04/28 07:31:21;;;;;;;20.42;9.35;;;;;;;18.86;26.62;102193.94;5050667;28;20136;-70
2022/04/28 07:33:47;;;;;;;20.75;8.18;;;;;;;18.60;26.89;102200.53;5051468;28;20045;-70
2022/04/28 07:36:14;;;;;;;18.60;8.55;;;;;;;18.21;27.19;102195.13;5050659;28;20408;-70
2022/04/28 07:38:44;;;;;;;22.17;8.13;;;;;;;18.54;26.78;102204.81;5050861;28;20137;-70
2022/04/28 07:41:12;;;;;;;18.33;8.43;;;;;;;18.47;26.93;102203.81;5049703;28;20546;-71
2022/04/28 07:43:38;;;;;;;22.17;7.07;;;;;;;18.60;26.83;102196.97;5050542;28;20041;-70
2022/04/28 07:46:05;;;;;;;20.48;7.75;;;;;;;19.07;25.77;102198.75;5050215;28;20044;-70
2022/04/28 07:48:32;;;;;;;19.55;7.70;;;;;;;19.39;25.62;102198.50;5050342;28;20128;-70
2022/04/28 07:50:58;;;;;;;22.98;8.07;;;;;;;18.65;26.24;102200.84;5050272;28;20129;-70
2022/04/28 07:53:24;;;;;;;20.75;6.40;;;;;;;18.77;26.21;102202.16;5050300;28;20472;-70
2022/04/28 07:58:37;;;;;;;16.88;6.72;;;;;;;20.08;24.51;102198.38;5050664;28;20076;-70
2022/04/28 08:01:04;;;;;;;15.98;6.28;;;;;;;19.40;25.21;102202.91;5043226;28;20152;-70
2022/04/28 08:03:31;;;;;;;22.20;5.63;;;;;;;19.17;25.48;102200.22;5050031;28;20052;-70
2022/04/28 08:05:58;;;;;;;18.42;6.43;;;;;;;20.23;24.39;102195.66;5049934;28;20501;-70
2022/04/28 08:08:24;;;;;;;18.55;6.50;;;;;;;20.93;23.53;102199.66;5049546;28;20053;-69
2022/04/28 08:10:51;;;;;;;17.25;5.90;;;;;;;21.55;22.48;102200.94;5050009;28;20044;-69
2022/04/28 08:13:17;;;;;;;21.95;5.90;;;;;;;21.93;22.22;102200.63;5051211;28;20077;-70
2022/04/28 08:15:44;;;;;;;17.90;5.93;;;;;;;21.22;22.38;102203.38;5050291;28;20144;-70
2022/04/28 08:18:11;;;;;;;17.63;6.40;;;;;;;20.61;23.16;102212.75;5049257;28;20194;-70
2022/04/28 08:20:41;;;;;;;26.90;11.18;;;;;;;20.77;23.45;102202.66;5053490;28;20076;-73
2022/04/28 08:23:08;;;;;;;20.25;5.70;;;;;;;21.29;22.96;102216.03;5056022;28;20040;-74
2022/04/28 08:25:35;;;;;;;18.88;5.63;;;;;;;21.09;22.87;102201.31;5054914;28;20469;-73
2022/04/28 08:28:01;;;;;;;19.00;5.38;;;;;;;21.37;22.61;102204.97;5056397;28;20044;-73
2022/04/28 08:30:28;;;;;;;18.75;5.13;;;;;;;20.59;23.68;102197.59;5056000;28;20056;-74
2022/04/28 08:32:54;;;;;;;22.52;5.05;;;;;;;20.62;23.48;102199.94;5054175;28;20040;-73
2022/04/28 08:35:21;;;;;;;15.35;5.00;;;;;;;21.91;22.25;102206.28;5047030;28;20099;-73
2022/04/28 08:37:48;;;;;;;13.73;5.88;;;;;;;22.45;21.43;102201.94;5055962;28;20045;-73
2022/04/28 08:40:15;;;;;;;17.48;5.18;;;;;;;22.31;21.80;102201.03;5054384;28;20041;-74
2022/04/28 08:42:42;;;;;;;15.75;5.63;;;;;;;21.35;22.60;102207.03;5054808;28;20566;-73
2022/04/28 08:45:09;;;;;;;13.40;4.30;;;;;;;21.81;22.14;102203.06;5051833;28;20057;-73
2022/04/28 08:47:36;;;;;;;14.68;5.22;;;;;;;22.24;21.29;102201.00;5055739;28;20053;-73
2022/04/28 08:50:03;;;;;;;16.13;4.53;;;;;;;22.18;21.76;102210.00;5055677;28;20080;-73
2022/04/28 08:52:30;;;;;;;18.63;5.57;;;;;;;22.85;21.01;102205.72;5056301;28;20048;-74
2022/04/28 08:54:56;;;;;;;20.42;6.20;;;;;;;22.75;21.01;102208.84;5054656;28;20095;-73
2022/04/28 08:57:23;;;;;;;21.83;5.95;;;;;;;22.58;21.27;102207.50;5036473;28;20447;-74
2022/04/28 08:59:51;;;;;;;14.25;5.07;;;;;;;23.49;20.23;102204.34;5052989;28;20052;-73
2022/04/28 09:02:27;;;;;;;19.25;5.72;;;;;;;24.16;19.11;102200.50;5054852;28;20059;-73
2022/04/28 09:05:05;;;;;;;18.13;5.65;;;;;;;24.43;18.92;102204.00;5042555;28;20436;-73
2022/04/28 09:07:42;;;;;;;24.42;5.68;;;;;;;25.63;17.85;102199.72;5053088;28;20044;-74
2022/04/28 09:10:32;;;;;;;19.45;5.93;;;;;;;24.82;18.41;102199.41;5053754;28;20168;-74
2022/04/28 09:15:50;;;;;;;12.95;5.13;;;;;;;26.19;17.68;102201.47;5035870;28;20457;-77
2022/04/28 09:18:19;;;;;;;11.50;4.93;;;;;;;25.03;18.50;102203.75;5039409;28;20077;-74
2022/04/28 09:20:47;;;;;;;15.40;6.18;;;;;;;23.69;19.47;102202.44;5049161;28;20128;-72
2022/04/28 09:23:14;;;;;;;19.38;4.65;;;;;;;23.57;19.82;102195.06;5054435;28;20052;-72
2022/04/28 09:25:42;;;;;;;14.43;4.95;;;;;;;23.86;19.90;102199.31;5054038;28;20588;-73
2022/04/28 09:28:10;;;;;;;12.95;4.97;;;;;;;24.87;18.64;102190.50;5054111;28;20064;-72
2022/04/28 09:30:45;;;;;;;16.52;4.82;;;;;;;24.57;19.09;102201.19;5054329;28;20048;-73
2022/04/28 09:33:13;;;;;;;10.43;4.72;;;;;;;25.50;17.73;102190.47;5055610;28;20119;-72
2022/04/28 09:35:51;;;;;;;17.35;5.20;;;;;;;25.39;18.23;102204.94;5054300;28;20121;-74
2022/04/28 09:38:19;;;;;;;15.48;4.93;;;;;;;25.89;17.08;102199.44;5052779;28;20061;-74
2022/04/28 09:43:56;;;;;;;17.40;5.88;;;;;;;23.58;18.44;102205.00;5049037;28;20553;-74
2022/04/28 09:46:29;;;;;;;16.52;7.05;;;;;;;23.32;18.62;102203.06;5053792;28;20094;-74
2022/04/28 09:48:57;;;;;;;12.32;6.03;;;;;;;21.59;20.57;102207.69;5053435;28;20148;-74
2022/04/28 09:51:25;;;;;;;12.23;5.88;;;;;;;21.42;21.63;102201.66;5054370;28;20110;-73
2022/04/28 09:53:52;;;;;;;31.85;6.05;;;;;;;21.27;22.21;102198.16;5047552;28;20461;-74
2022/04/28 09:56:24;;;;;;;24.60;5.68;;;;;;;21.00;22.82;102208.78;5053289;28;20049;-74
2022/04/28 09:58:51;;;;;;;15.50;7.10;;;;;;;22.01;21.62;102205.91;5053209;28;20397;-74
2022/04/28 10:01:18;;;;;;;12.82;5.70;;;;;;;20.79;22.89;102204.13;5054269;28;20076;-74
2022/04/28 10:03:45;;;;;;;19.23;6.32;;;;;;;20.43;23.42;102199.50;5053139;28;20462;-74
2022/04/28 10:06:12;;;;;;;20.33;6.45;;;;;;;21.53;22.28;102203.88;5053051;28;20041;-73
2022/04/28 10:08:41;;;;;;;13.57;5.28;;;;;;;22.83;20.14;102206.97;5053592;28;20072;-74
2022/04/28 10:11:11;;;;;;;16.02;5.88;;;;;;;22.72;20.58;102195.56;5053293;28;20107;-74
2022/04/28 10:13:39;;;;;;;16.15;5.68;;;;;;;22.09;20.88;102197.56;5050741;28;20140;-74
2022/04/28 10:16:10;;;;;;;11.27;4.78;;;;;;;22.40;20.56;102201.72;5046638;28;20091;-74
2022/04/28 10:18:41;;;;;;;9.98;4.40;;;;;;;22.42;20.58;102200.44;5052364;28;20049;-74
2022/04/28 10:21:13;;;;;;;21.83;5.97;;;;;;;21.83;21.69;102203.69;5052802;28;20076;-74
2022/04/28 10:35:04;;;;;;;11.02;4.88;;;;;;;24.47;18.84;102203.56;5048699;28;20439;-74
2022/04/28 10:37:33;;;;;;;14.60;4.57;;;;;;;23.62;19.05;102203.50;5036777;28;20551;-74
2022/04/28 10:40:00;;;;;;;13.10;4.88;;;;;;;22.47;20.49;102199.91;5051667;28;20090;-75
2022/04/28 10:42:27;;;;;;;13.20;5.15;;;;;;;23.12;19.70;102203.91;5053068;28;20072;-74
2022/04/28 10:44:57;;;;;;;13.25;4.50;;;;;;;22.48;20.80;102207.03;5052258;28;20041;-74
2022/04/28 10:47:38;;;;;;;22.73;5.72;;;;;;;22.33;20.82;102202.53;5052545;28;20067;-74
2022/04/28 10:50:25;;;;;;;12.32;4.47;;;;;;;22.64;20.43;102203.97;5051284;28;20048;-75
2022/04/28 10:53:10;;;;;;;10.73;4.95;;;;;;;22.43;20.76;102209.50;5033570;28;20482;-74
2022/04/28 10:55:41;;;;;;;19.38;4.70;;;;;;;23.06;19.70;102207.44;5045761;28;20052;-74
2022/04/28 10:58:21;;;;;;;12.15;4.80;;;;;;;22.47;20.31;102210.84;5055002;28;20129;-74
2022/04/28 11:00:56;;;;;;;12.80;5.07;;;;;;;22.01;20.61;102205.91;5055841;28;20078;-74
2022/04/28 11:03:41;;;;;;;14.85;4.78;;;;;;;22.08;20.30;102207.66;5055649;28;20044;-74
2022/04/28 11:06:13;;;;;;;12.00;4.90;;;;;;;22.91;19.64;102206.75;5053020;28;20044;-75
2022/04/28 11:08:45;;;;;;;16.10;5.22;;;;;;;22.18;20.36;102204.53;5054368;28;20048;-74
2022/04/28 11:11:12;;;;;;;10.88;4.15;;;;;;;21.95;20.66;102201.28;5054409;28;20049;-74
2022/04/28 11:13:43;;;;;;;7.20;4.70;;;;;;;21.72;20.69;102199.59;5054046;28;20044;-74
2022/04/28 11:16:12;;;;;;;14.93;4.32;;;;;;;21.97;19.96;102200.00;5053012;28;20136;-74
2022/04/28 11:18:39;;;;;;;11.23;4.65;;;;;;;22.56;19.75;102204.13;5048623;28;20041;-74
2022/04/28 11:21:06;;;;;;;11.68;4.60;;;;;;;22.45;20.17;102197.31;5054275;28;20071;-74
2022/04/28 11:23:35;;;;;;;11.50;4.63;;;;;;;22.91;20.22;102196.66;5048977;28;20051;-74
2022/04/28 11:26:02;;;;;;;15.68;5.55;;;;;;;23.80;18.97;102195.50;5052267;28;20078;-75
2022/04/28 11:28:31;;;;;;;10.60;4.55;;;;;;;23.68;19.34;102191.72;5055383;28;20045;-74
2022/04/28 11:30:58;;;;;;;15.88;5.32;;;;;;;22.87;20.11;102191.81;5054378;28;20486;-74
2022/04/28 11:33:25;;;;;;;8.98;4.28;;;;;;;21.93;20.79;102195.16;5049423;28;20041;-74
2022/04/28 11:35:52;;;;;;;11.82;4.40;;;;;;;23.02;19.26;102187.84;5052986;28;20482;-74
2022/04/28 11:38:26;;;;;;;19.25;4.45;;;;;;;23.01;19.72;102193.53;5053770;28;20053;-74
2022/04/28 11:41:03;;;;;;;10.82;4.20;;;;;;;22.73;19.88;102188.19;5054768;28;20045;-74
2022/04/28 11:43:32;;;;;;;10.18;4.22;;;;;;;22.31;20.34;102188.22;5046213;28;20045;-75
2022/04/28 11:46:01;;;;;;;9.75;4.95;;;;;;;23.40;19.23;102186.44;5053809;28;20045;-74
2022/04/28 11:48:29;;;;;;;12.50;4.40;;;;;;;24.02;18.67;102187.84;5052810;28;20045;-74
2022/04/28 11:51:04;;;;;;;13.93;4.65;;;;;;;24.54;18.03;102175.06;5052983;28;20059;-74